createdAt,value
2022-11-28T00:02:18.260Z,4.70
2022-11-28T00:04:51.191Z,4.70
2022-11-28T00:07:21.433Z,4.70
2022-11-28T00:09:52.945Z,4.70
2022-11-28T00:12:24.176Z,4.80
2022-11-28T00:14:54.159Z,4.70
2022-11-28T00:17:23.997Z,4.70
2022-11-28T00:19:53.727Z,4.70
2022-11-28T00:22:23.346Z,4.70
2022-11-28T00:24:54.808Z,4.70
2022-11-28T00:27:24.973Z,4.70
2022-11-28T00:29:56.879Z,4.70
2022-11-28T00:32:26.669Z,4.80
2022-11-28T00:34:56.513Z,4.90
2022-11-28T00:37:26.147Z,4.70
2022-11-28T00:39:57.111Z,4.70
2022-11-28T00:42:26.852Z,4.70
2022-11-28T00:44:56.607Z,4.60
2022-11-28T00:47:26.398Z,4.60
2022-11-28T00:49:56.216Z,4.50
2022-11-28T00:52:26.049Z,4.50
2022-11-28T00:54:56.928Z,4.50
2022-11-28T00:57:26.715Z,4.50
2022-11-28T00:59:56.549Z,4.40
2022-11-28T01:02:26.437Z,4.40
2022-11-28T01:04:56.285Z,4.40
2022-11-28T01:07:28.513Z,4.40
2022-11-28T01:09:59.738Z,4.40
2022-11-28T01:12:30.468Z,4.60
2022-11-28T01:15:00.259Z,4.50
2022-11-28T01:17:30.098Z,4.60
2022-11-28T01:20:00.105Z,4.50
2022-11-28T01:22:29.889Z,4.40
2022-11-28T01:25:01.856Z,4.10
2022-11-28T01:27:31.762Z,4.00
2022-11-28T01:30:01.680Z,4.10
2022-11-28T01:32:31.629Z,4.10
2022-11-28T01:35:01.518Z,4.20
2022-11-28T01:37:31.964Z,4.20
2022-11-28T01:40:03.894Z,4.10
2022-11-28T01:42:33.786Z,4.20
2022-11-28T01:45:21.228Z,4.20
2022-11-28T01:47:53.197Z,4.20
2022-11-28T01:50:24.623Z,4.30
2022-11-28T01:53:00.141Z,4.30
2022-11-28T01:55:38.514Z,4.20
2022-11-28T01:58:10.341Z,4.20
2022-11-28T02:00:40.498Z,4.30
2022-11-28T02:03:16.545Z,4.20
2022-11-28T02:05:46.956Z,4.10
2022-11-28T02:08:17.066Z,4.20
2022-11-28T02:11:03.538Z,4.10
2022-11-28T02:13:44.777Z,4.20
2022-11-28T02:16:43.165Z,4.30
2022-11-28T02:19:46.565Z,4.40
2022-11-28T02:22:23.231Z,4.30
2022-11-28T02:25:04.289Z,4.30
2022-11-28T02:28:11.044Z,4.30
2022-11-28T02:30:52.310Z,4.30
2022-11-28T02:33:26.912Z,4.20
2022-11-28T02:36:04.182Z,4.20
2022-11-28T02:38:46.009Z,4.20
2022-11-28T02:41:23.414Z,4.20
2022-11-28T02:44:01.475Z,4.30
2022-11-28T02:46:39.063Z,4.30
2022-11-28T02:49:14.012Z,4.30
2022-11-28T02:51:48.221Z,4.20
2022-11-28T02:54:20.377Z,4.20
2022-11-28T02:56:51.843Z,4.30
2022-11-28T02:59:32.646Z,4.40
2022-11-28T03:02:03.140Z,4.40
2022-11-28T03:04:51.094Z,4.40
2022-11-28T03:07:31.958Z,4.40
2022-11-28T03:10:13.309Z,4.40
2022-11-28T03:12:51.804Z,4.40
2022-11-28T03:15:30.519Z,4.50
2022-11-28T03:18:09.322Z,4.40
2022-11-28T03:20:47.143Z,4.30
2022-11-28T03:23:21.215Z,4.20
2022-11-28T03:25:58.301Z,4.10
2022-11-28T03:28:30.898Z,4.00
2022-11-28T03:31:03.719Z,4.00
2022-11-28T03:33:36.939Z,4.10
2022-11-28T03:36:14.900Z,4.20
2022-11-28T03:38:48.787Z,4.30
2022-11-28T03:41:23.227Z,4.30
2022-11-28T03:43:56.023Z,4.20
2022-11-28T03:46:32.625Z,4.20
2022-11-28T03:49:07.125Z,4.20
2022-11-28T03:51:42.747Z,4.30
2022-11-28T03:54:17.136Z,4.30
2022-11-28T03:56:55.179Z,4.30
2022-11-28T03:59:29.916Z,4.20
2022-11-28T04:02:07.774Z,4.10
2022-11-28T04:04:44.187Z,4.10
2022-11-28T04:07:22.864Z,4.10
2022-11-28T04:10:00.373Z,4.10
2022-11-28T04:12:38.602Z,4.30
2022-11-28T04:15:15.051Z,4.20
2022-11-28T04:17:50.325Z,4.20
2022-11-28T04:20:26.618Z,4.20
2022-11-28T04:23:01.082Z,4.10
2022-11-28T04:25:33.234Z,4.10
2022-11-28T04:28:07.364Z,4.00
2022-11-28T04:30:38.019Z,4.00
2022-11-28T04:33:12.400Z,4.00
2022-11-28T04:35:45.523Z,4.00
2022-11-28T04:38:17.622Z,4.10
2022-11-28T04:40:53.613Z,4.20
2022-11-28T04:43:27.353Z,4.20
2022-11-28T04:46:01.549Z,4.10
2022-11-28T04:48:34.465Z,4.10
2022-11-28T04:51:14.286Z,4.10
2022-11-28T04:53:49.124Z,4.10
2022-11-28T04:56:22.719Z,4.10
2022-11-28T04:58:53.267Z,4.20
2022-11-28T05:01:29.701Z,4.20
2022-11-28T05:03:59.835Z,4.20
2022-11-28T05:06:31.735Z,4.10
2022-11-28T05:09:02.641Z,4.10
2022-11-28T05:11:32.557Z,4.20
2022-11-28T05:14:02.406Z,4.10
2022-11-28T05:16:32.358Z,4.10
2022-11-28T05:19:01.923Z,4.10
2022-11-28T05:21:31.703Z,4.10
2022-11-28T05:24:02.693Z,4.10
2022-11-28T05:26:32.841Z,4.10
2022-11-28T05:29:05.488Z,4.10
2022-11-28T05:31:35.090Z,4.10
2022-11-28T05:34:04.964Z,4.10
2022-11-28T05:36:34.713Z,4.10
2022-11-28T05:39:05.759Z,4.20
2022-11-28T05:41:35.920Z,4.20
2022-11-28T05:44:05.439Z,4.20
2022-11-28T05:46:35.209Z,4.10
2022-11-28T05:49:05.016Z,4.10
2022-11-28T05:51:34.838Z,4.10
2022-11-28T05:54:06.066Z,4.00
2022-11-28T05:56:40.914Z,4.00
2022-11-28T05:59:13.372Z,4.00
2022-11-28T06:01:45.502Z,4.00
2022-11-28T06:04:15.147Z,4.00
2022-11-28T06:06:45.103Z,4.00
2022-11-28T06:09:16.251Z,3.90
2022-11-28T06:11:46.061Z,4.00
2022-11-28T06:14:16.467Z,4.00
2022-11-28T06:16:46.313Z,4.00
2022-11-28T06:19:16.165Z,4.00
2022-11-28T06:21:46.045Z,4.00
2022-11-28T06:24:17.246Z,4.00
2022-11-28T06:26:46.973Z,4.00
2022-11-28T06:29:16.761Z,4.00
2022-11-28T06:31:46.779Z,4.00
2022-11-28T06:34:16.891Z,4.10
2022-11-28T06:36:47.346Z,4.10
2022-11-28T06:39:19.299Z,4.10
2022-11-28T06:41:49.081Z,4.10
2022-11-28T06:44:19.819Z,4.10
2022-11-28T06:46:49.495Z,4.20
2022-11-28T06:49:19.313Z,4.10
2022-11-28T06:51:49.104Z,4.10
2022-11-28T06:54:20.187Z,4.10
2022-11-28T06:56:50.463Z,4.10
2022-11-28T06:59:20.274Z,4.10
2022-11-28T07:01:50.170Z,4.20
2022-11-28T07:04:19.732Z,4.10
2022-11-28T07:06:52.041Z,4.10
2022-11-28T07:09:23.914Z,4.00
2022-11-28T07:11:53.589Z,3.90
2022-11-28T07:14:23.998Z,3.90
2022-11-28T07:16:54.000Z,3.90
2022-11-28T07:19:23.745Z,3.90
2022-11-28T07:21:53.455Z,3.90
2022-11-28T07:24:24.653Z,3.90
2022-11-28T07:26:56.503Z,4.00
2022-11-28T07:29:30.726Z,4.00
2022-11-28T07:32:00.327Z,4.00
2022-11-28T07:34:29.887Z,4.00
2022-11-28T07:36:59.704Z,4.00
2022-11-28T07:39:30.712Z,4.00
2022-11-28T07:42:00.730Z,3.90
2022-11-28T07:44:30.605Z,3.90
2022-11-28T07:47:00.126Z,3.90
2022-11-28T07:49:29.756Z,4.00
2022-11-28T07:52:00.053Z,4.00
2022-11-28T07:54:31.975Z,4.10
2022-11-28T07:57:13.034Z,4.10
2022-11-28T07:59:43.661Z,4.10
2022-11-28T08:02:14.446Z,4.10
2022-11-28T08:04:50.476Z,4.10
2022-11-28T08:07:22.639Z,4.20
2022-11-28T08:09:53.592Z,4.30
2022-11-28T08:12:23.490Z,4.30
2022-11-28T08:14:53.241Z,4.40
2022-11-28T08:17:23.149Z,4.40
2022-11-28T08:19:53.018Z,4.40
2022-11-28T08:22:22.990Z,4.40
2022-11-28T08:24:53.920Z,4.40
2022-11-28T08:27:24.068Z,4.40
2022-11-28T08:29:54.394Z,4.40
2022-11-28T08:32:24.458Z,4.50
2022-11-28T08:34:54.324Z,4.40
2022-11-28T08:37:24.120Z,4.50
2022-11-28T08:39:55.355Z,4.50
2022-11-28T08:42:25.446Z,4.60
2022-11-28T08:44:55.452Z,4.70
2022-11-28T08:47:25.355Z,4.80
2022-11-28T08:49:55.182Z,4.80
2022-11-28T08:52:25.171Z,4.70
2022-11-28T08:54:56.339Z,4.60
2022-11-28T08:57:26.259Z,4.60
2022-11-28T08:59:56.163Z,4.60
2022-11-28T09:02:26.235Z,4.60
2022-11-28T09:04:56.111Z,4.60
2022-11-28T09:07:25.964Z,4.70
2022-11-28T09:09:57.177Z,4.70
2022-11-28T09:12:27.177Z,4.70
2022-11-28T09:14:57.027Z,4.60
2022-11-28T09:17:26.791Z,4.60
2022-11-28T09:19:56.658Z,4.60
2022-11-28T09:22:26.619Z,4.70
2022-11-28T09:24:57.838Z,4.70
2022-11-28T09:27:27.813Z,4.60
2022-11-28T09:29:57.563Z,4.70
2022-11-28T09:32:27.362Z,4.80
2022-11-28T09:34:57.202Z,4.90
2022-11-28T09:37:28.282Z,4.90
2022-11-28T09:40:13.274Z,5.00
2022-11-28T09:42:45.170Z,5.00
2022-11-28T09:45:17.304Z,5.10
2022-11-28T09:47:50.861Z,5.20
2022-11-28T09:50:23.544Z,5.20
2022-11-28T09:53:00.274Z,5.20
2022-11-28T09:55:37.309Z,5.20
2022-11-28T09:58:11.409Z,5.30
2022-11-28T10:00:45.264Z,5.40
2022-11-28T10:03:29.383Z,5.50
2022-11-28T10:06:07.189Z,5.40
2022-11-28T10:08:43.432Z,5.40
2022-11-28T10:11:24.636Z,5.40
2022-11-28T10:14:09.925Z,5.50
2022-11-28T10:16:49.199Z,5.50
2022-11-28T10:19:52.268Z,5.60
2022-11-28T10:22:17.053Z,5.60
2022-11-28T10:24:49.394Z,5.70
2022-11-28T10:27:26.721Z,5.80
2022-11-28T10:30:03.225Z,5.80
2022-11-28T10:32:37.432Z,5.90
2022-11-28T10:35:15.029Z,6.00
2022-11-28T10:37:53.689Z,6.00
2022-11-28T10:40:31.130Z,6.10
2022-11-28T10:43:07.216Z,6.20
2022-11-28T10:45:47.539Z,6.20
2022-11-28T10:48:41.245Z,6.30
2022-11-28T10:51:22.575Z,6.40
2022-11-28T10:54:04.289Z,6.40
2022-11-28T10:56:41.242Z,6.50
2022-11-28T10:59:19.910Z,6.50
2022-11-28T11:01:51.380Z,6.60
2022-11-28T11:04:23.208Z,6.60
2022-11-28T11:07:15.062Z,6.60
2022-11-28T11:09:48.406Z,6.60
2022-11-28T11:12:25.544Z,6.70
2022-11-28T11:14:56.737Z,6.70
2022-11-28T11:17:36.339Z,6.70
2022-11-28T11:20:31.177Z,6.70
2022-11-28T11:23:02.900Z,6.80
2022-11-28T11:25:33.546Z,6.80
2022-11-28T11:28:05.424Z,6.80
2022-11-28T11:30:39.093Z,6.90
2022-11-28T11:33:14.945Z,6.90
2022-11-28T11:35:48.777Z,6.90
2022-11-28T11:38:27.180Z,7.00
2022-11-28T11:40:59.294Z,7.10
2022-11-28T11:43:31.237Z,7.00
2022-11-28T11:46:10.228Z,7.10
2022-11-28T11:48:42.096Z,7.20
2022-11-28T11:51:24.053Z,7.20
2022-11-28T11:54:03.224Z,7.20
2022-11-28T11:56:37.359Z,7.30
2022-11-28T11:59:13.270Z,7.20
2022-11-28T12:01:46.722Z,7.20
2022-11-28T12:04:44.309Z,7.20
2022-11-28T12:07:22.106Z,7.20
2022-11-28T12:09:54.671Z,7.20
2022-11-28T12:12:26.633Z,7.20
2022-11-28T12:14:56.429Z,7.20
2022-11-28T12:17:55.711Z,7.30
2022-11-28T12:20:45.588Z,7.30
2022-11-28T12:23:33.903Z,7.30
2022-11-28T12:26:09.994Z,7.30
2022-11-28T12:28:49.369Z,7.30
2022-11-28T12:31:30.336Z,7.30
2022-11-28T12:34:09.174Z,7.30
2022-11-28T12:36:45.597Z,7.40
2022-11-28T12:39:26.163Z,7.40
2022-11-28T12:42:09.339Z,7.30
2022-11-28T12:44:54.706Z,7.30
2022-11-28T12:47:34.573Z,7.40
2022-11-28T12:50:16.417Z,7.30
2022-11-28T12:52:51.600Z,7.30
2022-11-28T12:55:27.116Z,7.30
2022-11-28T12:58:06.883Z,7.40
2022-11-28T13:00:51.862Z,7.50
2022-11-28T13:03:35.356Z,7.40
2022-11-28T13:06:21.083Z,7.40
2022-11-28T13:09:10.274Z,7.40
2022-11-28T13:11:50.132Z,7.40
2022-11-28T13:14:27.067Z,7.40
2022-11-28T13:17:13.535Z,7.50
2022-11-28T13:19:51.113Z,7.50
2022-11-28T13:22:26.468Z,7.50
2022-11-28T13:25:05.540Z,7.50
2022-11-28T13:27:43.859Z,7.40
2022-11-28T13:30:22.135Z,7.40
2022-11-28T13:33:00.324Z,7.30
2022-11-28T13:35:30.974Z,7.30
2022-11-28T13:41:04.253Z,7.20
2022-11-28T13:43:48.881Z,7.20
2022-11-28T13:46:19.346Z,7.00
2022-11-28T13:49:20.603Z,7.10
2022-11-28T13:52:10.021Z,7.00
2022-11-28T13:54:55.296Z,7.00
2022-11-28T13:57:28.077Z,7.00
2022-11-28T14:00:00.965Z,7.00
2022-11-28T14:02:37.972Z,6.90
2022-11-28T14:05:23.058Z,6.90
2022-11-28T14:07:56.441Z,6.80
2022-11-28T14:10:39.265Z,6.80
2022-11-28T14:13:23.072Z,6.70
2022-11-28T14:16:03.338Z,6.70
2022-11-28T14:18:56.852Z,6.70
2022-11-28T14:21:33.697Z,6.60
2022-11-28T14:24:12.766Z,6.50
2022-11-28T14:26:44.995Z,6.50
2022-11-28T14:29:25.969Z,6.60
2022-11-28T14:32:27.766Z,6.60
2022-11-28T14:34:48.380Z,6.50
2022-11-28T14:37:36.812Z,6.50
2022-11-28T14:40:43.648Z,6.50
2022-11-28T14:43:31.649Z,6.50
2022-11-28T14:46:20.335Z,6.60
2022-11-28T14:49:19.400Z,6.70
2022-11-28T14:52:31.048Z,6.60
2022-11-28T14:54:57.753Z,6.60
2022-11-28T14:57:28.583Z,6.60
2022-11-28T15:00:07.739Z,6.60
2022-11-28T15:03:06.893Z,6.60
2022-11-28T15:05:52.850Z,6.70
2022-11-28T15:08:35.864Z,6.80
2022-11-28T15:11:24.116Z,6.70
2022-11-28T15:14:03.067Z,6.60
2022-11-28T15:16:35.611Z,6.60
2022-11-28T15:19:13.071Z,6.50
2022-11-28T15:21:46.675Z,6.50
2022-11-28T15:24:25.360Z,6.50
2022-11-28T15:26:58.229Z,6.50
2022-11-28T15:29:29.898Z,6.50
2022-11-28T15:32:02.210Z,6.60
2022-11-28T15:34:33.844Z,6.70
2022-11-28T15:37:06.233Z,6.60
2022-11-28T15:39:39.786Z,6.60
2022-11-28T15:42:19.137Z,6.60
2022-11-28T15:44:52.499Z,6.60
2022-11-28T15:47:25.195Z,6.70
2022-11-28T15:50:14.469Z,6.70
2022-11-28T15:52:53.234Z,6.70
2022-11-28T15:55:23.181Z,6.60
2022-11-28T15:57:52.808Z,6.60
2022-11-28T16:00:25.696Z,6.70
2022-11-28T16:02:56.589Z,6.70
2022-11-28T16:05:26.581Z,6.70
2022-11-28T16:07:56.451Z,6.70
2022-11-28T16:10:38.279Z,6.60
2022-11-28T16:13:20.163Z,6.70
2022-11-28T16:15:52.498Z,6.70
2022-11-28T16:18:23.942Z,6.70
2022-11-28T16:20:54.098Z,6.70
2022-11-28T16:23:34.510Z,6.60
2022-11-28T16:26:07.195Z,6.50
2022-11-28T16:28:39.519Z,6.40
2022-11-28T16:31:14.776Z,6.40
2022-11-28T16:33:47.843Z,6.30
2022-11-28T16:36:24.705Z,6.20
2022-11-28T16:39:04.137Z,6.20
2022-11-28T16:41:34.100Z,6.20
2022-11-28T16:44:06.124Z,6.30
2022-11-28T16:46:39.605Z,6.20
2022-11-28T16:49:36.331Z,6.20
2022-11-28T16:52:43.805Z,6.30
2022-11-28T16:55:39.144Z,6.20
2022-11-28T16:58:23.936Z,6.20
2022-11-28T17:01:03.879Z,6.30
2022-11-28T17:03:51.628Z,6.40
2022-11-28T17:06:24.410Z,6.30
2022-11-28T17:08:54.731Z,6.40
2022-11-28T17:11:29.089Z,6.40
2022-11-28T17:14:02.155Z,6.50
2022-11-28T17:16:36.749Z,6.50
2022-11-28T17:19:06.923Z,6.50
2022-11-28T17:21:42.969Z,6.50
2022-11-28T17:24:16.652Z,6.50
2022-11-28T17:26:46.369Z,6.40
2022-11-28T17:29:17.354Z,6.40
2022-11-28T17:31:48.738Z,6.40
2022-11-28T17:34:20.850Z,6.30
2022-11-28T17:36:52.434Z,6.20
2022-11-28T17:39:22.586Z,6.10
2022-11-28T17:41:52.731Z,6.10
2022-11-28T17:44:26.124Z,6.10
2022-11-28T17:46:58.188Z,6.10
2022-11-28T17:49:28.444Z,6.20
2022-11-28T17:52:00.145Z,6.20
2022-11-28T17:54:29.941Z,6.20
2022-11-28T17:57:00.576Z,6.30
2022-11-28T17:59:34.224Z,6.20
2022-11-28T18:02:04.229Z,6.20
2022-11-28T18:04:35.149Z,6.20
2022-11-28T18:07:06.034Z,6.20
2022-11-28T18:09:35.858Z,6.20
2022-11-28T18:12:06.041Z,6.20
2022-11-28T18:14:39.666Z,6.20
2022-11-28T18:17:09.621Z,6.20
2022-11-28T18:19:39.275Z,6.20
2022-11-28T18:22:10.177Z,6.20
2022-11-28T18:24:39.921Z,6.30
2022-11-28T18:27:09.706Z,6.30
2022-11-28T18:29:39.507Z,6.30
2022-11-28T18:32:09.259Z,6.20
2022-11-28T18:34:39.139Z,6.20
2022-11-28T18:37:10.699Z,6.10
2022-11-28T18:39:40.223Z,6.00
2022-11-28T18:42:10.219Z,5.90
2022-11-28T18:44:40.070Z,6.00
2022-11-28T18:47:09.796Z,5.90
2022-11-28T18:49:39.742Z,5.90
2022-11-28T18:52:10.905Z,5.90
2022-11-28T18:54:41.403Z,5.90
2022-11-28T18:57:11.508Z,5.90
2022-11-28T18:59:44.654Z,5.90
2022-11-28T19:02:18.610Z,5.90
2022-11-28T19:04:46.547Z,6.00
2022-11-28T19:07:17.682Z,6.00
2022-11-28T19:09:47.566Z,6.10
2022-11-28T19:12:18.842Z,6.10
2022-11-28T19:14:48.702Z,6.10
2022-11-28T19:17:18.820Z,6.10
2022-11-28T19:19:48.385Z,6.10
2022-11-28T19:22:19.526Z,6.10
2022-11-28T19:24:49.373Z,6.00
2022-11-28T19:27:19.146Z,6.00
2022-11-28T19:29:48.954Z,6.00
2022-11-28T19:32:18.885Z,6.00
2022-11-28T19:34:52.175Z,6.00
2022-11-28T19:37:23.445Z,6.10
2022-11-28T19:39:53.197Z,6.10
2022-11-28T19:42:23.151Z,6.10
2022-11-28T19:44:53.007Z,6.10
2022-11-28T19:47:24.398Z,6.10
2022-11-28T19:49:54.284Z,6.00
2022-11-28T19:52:25.431Z,6.00
2022-11-28T19:54:55.353Z,5.90
2022-11-28T19:57:26.166Z,5.80
2022-11-28T19:59:55.672Z,5.80
2022-11-28T20:02:25.584Z,5.80
2022-11-28T20:04:55.430Z,5.80
2022-11-28T20:07:26.485Z,5.80
2022-11-28T20:09:56.284Z,5.90
2022-11-28T20:12:26.129Z,5.90
2022-11-28T20:14:56.084Z,5.90
2022-11-28T20:17:26.080Z,5.90
2022-11-28T20:19:55.908Z,5.80
2022-11-28T20:22:26.953Z,5.80
2022-11-28T20:24:56.772Z,5.90
2022-11-28T20:27:26.624Z,5.90
2022-11-28T20:29:56.548Z,5.90
2022-11-28T20:32:26.399Z,5.80
2022-11-28T20:34:56.243Z,5.80
2022-11-28T20:37:27.220Z,5.90
2022-11-28T20:39:57.371Z,5.80
2022-11-28T20:42:27.339Z,5.80
2022-11-28T20:44:57.245Z,5.80
2022-11-28T20:47:27.116Z,5.80
2022-11-28T20:49:56.978Z,5.80
2022-11-28T20:52:28.181Z,5.80
2022-11-28T20:54:57.883Z,5.80
2022-11-28T20:57:27.774Z,5.80
2022-11-28T20:59:57.615Z,5.90
2022-11-28T21:02:27.312Z,5.80
2022-11-28T21:04:57.589Z,5.80
2022-11-28T21:07:29.317Z,5.80
2022-11-28T21:09:59.996Z,5.80
2022-11-28T21:12:29.811Z,5.80
2022-11-28T21:14:59.464Z,5.80
2022-11-28T21:17:29.256Z,5.90
2022-11-28T21:19:59.159Z,5.90
2022-11-28T21:22:30.971Z,5.80
2022-11-28T21:25:00.752Z,5.80
2022-11-28T21:27:30.778Z,5.80
2022-11-28T21:30:00.620Z,5.70
2022-11-28T21:32:30.568Z,5.80
2022-11-28T21:35:04.297Z,5.70
2022-11-28T21:37:35.821Z,5.70
2022-11-28T21:40:05.698Z,5.70
2022-11-28T21:42:35.566Z,5.60
2022-11-28T21:45:05.472Z,5.60
2022-11-28T21:47:35.310Z,5.70
2022-11-28T21:50:05.270Z,5.60
2022-11-28T21:52:36.342Z,5.60
2022-11-28T21:55:06.645Z,5.60
2022-11-28T21:57:36.372Z,5.70
2022-11-28T22:00:13.614Z,5.70
2022-11-28T22:03:01.152Z,5.80
2022-11-28T22:05:33.475Z,5.80
2022-11-28T22:08:04.664Z,5.80
2022-11-28T22:10:34.247Z,5.60
2022-11-28T22:13:03.974Z,5.50
2022-11-28T22:15:33.740Z,5.50
2022-11-28T22:18:03.480Z,5.50
2022-11-28T22:20:33.278Z,5.50
2022-11-28T22:23:04.748Z,5.60
2022-11-28T22:25:34.448Z,5.50
2022-11-28T22:28:04.302Z,5.50
2022-11-28T22:30:34.203Z,5.50
2022-11-28T22:33:04.227Z,5.50
2022-11-28T22:35:34.375Z,5.50
2022-11-28T22:38:05.498Z,5.60
2022-11-28T22:40:35.243Z,5.60
2022-11-28T22:43:05.507Z,5.70
2022-11-28T22:45:35.223Z,5.60
2022-11-28T22:48:04.960Z,5.60
2022-11-28T22:50:38.807Z,5.50
2022-11-28T22:53:11.220Z,5.50
2022-11-28T22:55:41.107Z,5.60
2022-11-28T22:58:10.864Z,5.60
2022-11-28T23:00:40.938Z,5.60
2022-11-28T23:03:10.690Z,5.60
2022-11-28T23:05:44.271Z,5.50
2022-11-28T23:08:17.611Z,5.50
2022-11-28T23:10:47.447Z,5.40
2022-11-28T23:13:17.320Z,5.40
2022-11-28T23:15:52.642Z,5.40
2022-11-28T23:18:22.669Z,5.30
2022-11-28T23:20:56.470Z,5.30
2022-11-28T23:23:27.593Z,5.30
2022-11-28T23:25:57.311Z,5.40
2022-11-28T23:28:27.081Z,5.40
2022-11-28T23:30:56.973Z,5.40
2022-11-28T23:33:26.568Z,5.50
2022-11-28T23:35:56.273Z,5.40
2022-11-28T23:38:27.533Z,5.40
2022-11-28T23:41:02.337Z,5.40
2022-11-28T23:43:32.331Z,5.40
2022-11-28T23:46:01.953Z,5.40
2022-11-28T23:48:31.676Z,5.50
2022-11-28T23:51:01.521Z,5.40
2022-11-28T23:53:32.733Z,5.40
2022-11-28T23:56:04.169Z,5.50
2022-11-28T23:58:34.485Z,5.50
